Time;durP1;ratioP1;P1;durP2;ratioP2;P2;SDS_P1;SDS_P2;PMS_P1;PMS_P2;Temp;Humidity;BMP_temperature;BMP_pressure;BME280_temperature;BME280_humidity;BME280_pressure;Samples;Min_cycle;Max_cycle;Signal;HPM_P1;HPM_P2
2023/12/27 00:00:16;;;;;;;6.07;1.50;;;26.30;99.90;;;;;;5056977;28;20209;-81
2023/12/27 00:02:51;;;;;;;5.97;1.58;;;26.40;99.90;;;;;;5070411;28;20303;-82
2023/12/27 00:05:22;;;;;;;3.80;1.30;;;26.50;99.90;;;;;;5067613;28;20300;-80
2023/12/27 00:07:53;;;;;;;3.67;1.42;;;26.60;99.90;;;;;;5073778;28;20200;-80
2023/12/27 00:10:25;;;;;;;3.97;1.70;;;26.70;99.90;;;;;;5067042;28;20247;-80
2023/12/27 00:12:57;;;;;;;6.97;1.70;;;26.80;99.90;;;;;;5068081;28;20315;-82
2023/12/27 00:15:27;;;;;;;4.20;1.40;;;26.70;99.90;;;;;;5078063;28;20649;-81
2023/12/27 00:17:58;;;;;;;3.60;1.50;;;26.80;99.90;;;;;;5072171;28;20203;-80
2023/12/27 00:20:29;;;;;;;3.90;1.60;;;26.60;99.90;;;;;;5069054;28;20238;-81
2023/12/27 00:23:00;;;;;;;6.35;1.83;;;26.50;99.90;;;;;;5072804;28;20227;-81
2023/12/27 00:25:32;;;;;;;5.75;1.92;;;26.40;99.90;;;;;;5072872;28;20191;-80
2023/12/27 00:28:03;;;;;;;5.75;2.25;;;26.40;99.90;;;;;;5071565;28;20204;-80
2023/12/27 00:30:34;;;;;;;4.78;1.60;;;26.40;99.90;;;;;;5070429;28;20680;-80
2023/12/27 00:33:05;;;;;;;4.10;1.60;;;26.20;99.90;;;;;;5061870;28;20655;-81
2023/12/27 00:35:36;;;;;;;6.22;1.90;;;26.10;99.90;;;;;;5065666;28;20230;-80
2023/12/27 00:38:07;;;;;;;4.78;1.92;;;26.10;99.90;;;;;;5053451;28;20234;-81
2023/12/27 00:40:39;;;;;;;5.15;1.90;;;26.10;99.90;;;;;;5055739;28;20211;-80
2023/12/27 00:43:10;;;;;;;3.90;1.58;;;26.30;99.90;;;;;;5068249;28;20212;-81
2023/12/27 00:45:44;;;;;;;8.40;1.80;;;26.30;99.90;;;;;;5056022;28;20877;-80
2023/12/27 00:48:15;;;;;;;5.03;1.80;;;26.40;99.90;;;;;;5063287;28;20303;-82
2023/12/27 00:50:46;;;;;;;4.55;1.48;;;26.50;99.90;;;;;;5055862;28;20216;-81
2023/12/27 00:53:17;;;;;;;3.92;1.48;;;26.60;99.90;;;;;;5066091;28;20196;-82
2023/12/27 00:55:49;;;;;;;4.57;1.40;;;26.70;99.90;;;;;;5063571;28;20199;-82
2023/12/27 00:58:20;;;;;;;5.28;1.60;;;26.90;99.90;;;;;;5062831;28;20208;-80
2023/12/27 01:00:51;;;;;;;3.15;1.30;;;26.90;99.90;;;;;;5065862;28;20196;-84
2023/12/27 01:03:22;;;;;;;2.75;1.20;;;26.90;99.90;;;;;;5061995;28;20207;-84
2023/12/27 01:05:53;;;;;;;6.25;2.28;;;26.80;99.90;;;;;;5071550;28;20207;-83
2023/12/27 01:08:24;;;;;;;4.00;1.65;;;26.70;99.90;;;;;;5071130;28;20238;-82
2023/12/27 01:10:56;;;;;;;4.18;1.63;;;26.60;99.90;;;;;;5066757;28;20205;-84
2023/12/27 01:13:28;;;;;;;4.38;1.30;;;26.40;99.90;;;;;;5062582;28;20200;-82
2023/12/27 01:16:01;;;;;;;6.13;1.33;;;26.30;99.90;;;;;;5061244;28;20258;-84
2023/12/27 01:18:32;;;;;;;5.88;2.10;;;26.30;99.90;;;;;;5060555;28;20229;-85
2023/12/27 01:21:02;;;;;;;5.70;1.73;;;26.30;99.90;;;;;;5065824;28;20199;-87
2023/12/27 01:23:34;;;;;;;3.83;1.42;;;26.20;99.90;;;;;;5072029;28;20242;-85
2023/12/27 01:26:07;;;;;;;5.40;1.50;;;26.20;99.90;;;;;;5059973;28;20621;-86
2023/12/27 01:28:37;;;;;;;4.88;1.77;;;26.10;99.90;;;;;;5069566;28;20555;-85
2023/12/27 01:31:10;;;;;;;4.28;1.52;;;26.10;99.90;;;;;;5071322;28;20188;-84
2023/12/27 01:33:42;;;;;;;5.47;1.52;;;26.00;99.90;;;;;;5070492;28;20655;-84
2023/12/27 01:36:13;;;;;;;3.88;1.60;;;25.90;99.90;;;;;;5071275;28;20597;-85
2023/12/27 01:38:44;;;;;;;4.38;1.40;;;25.90;99.90;;;;;;5081650;28;20260;-81
2023/12/27 01:41:17;;;;;;;2.35;1.40;;;25.80;99.90;;;;;;5076145;28;22132;-83
2023/12/27 01:43:48;;;;;;;2.72;1.30;;;25.80;99.90;;;;;;5064394;28;20275;-83
2023/12/27 01:46:19;;;;;;;7.05;2.33;;;25.70;99.90;;;;;;5069466;28;20216;-82
2023/12/27 01:48:49;;;;;;;5.85;2.33;;;25.70;99.90;;;;;;5071338;28;20594;-84
2023/12/27 01:51:26;;;;;;;3.80;1.60;;;25.60;99.90;;;;;;5058379;28;20228;-82
2023/12/27 01:53:58;;;;;;;2.72;1.75;;;25.50;99.90;;;;;;5070862;28;20249;-82
2023/12/27 01:56:31;;;;;;;2.85;1.30;;;25.50;99.90;;;;;;5070757;28;20200;-83
2023/12/27 01:59:03;;;;;;;3.53;1.40;;;25.40;99.90;;;;;;5065509;28;20647;-83
2023/12/27 02:01:34;;;;;;;3.35;1.30;;;25.40;99.90;;;;;;5066570;28;20216;-84
2023/12/27 02:04:04;;;;;;;3.08;1.30;;;25.40;99.90;;;;;;5061845;28;20255;-84
2023/12/27 02:06:36;;;;;;;3.80;1.40;;;25.50;99.90;;;;;;5060401;28;20223;-83
2023/12/27 02:09:07;;;;;;;4.47;1.30;;;25.50;99.90;;;;;;5068887;28;20188;-83
2023/12/27 02:11:40;;;;;;;7.05;2.20;;;25.50;99.90;;;;;;5073552;28;20229;-81
2023/12/27 02:14:11;;;;;;;3.35;1.52;;;25.50;99.90;;;;;;5071882;28;20559;-85
2023/12/27 02:16:42;;;;;;;7.13;1.60;;;25.50;99.90;;;;;;5064669;28;20678;-83
2023/12/27 02:19:18;;;;;;;3.85;1.10;;;25.50;99.90;;;;;;5067484;28;20227;-83
2023/12/27 02:21:49;;;;;;;4.20;1.48;;;25.60;99.90;;;;;;5072464;28;20215;-82
2023/12/27 02:24:21;;;;;;;4.07;1.20;;;25.70;99.90;;;;;;5067834;28;20211;-82
2023/12/27 02:26:54;;;;;;;5.68;1.10;;;25.90;99.90;;;;;;5070949;28;20218;-81
2023/12/27 02:29:25;;;;;;;2.45;1.08;;;26.10;99.90;;;;;;5059155;28;20216;-81
2023/12/27 02:31:57;;;;;;;4.53;1.52;;;26.30;99.90;;;;;;5071459;28;20250;-80
2023/12/27 02:34:28;;;;;;;4.07;1.05;;;26.40;99.90;;;;;;5078274;28;20212;-80
2023/12/27 02:36:59;;;;;;;5.38;1.35;;;26.60;99.90;;;;;;5072419;28;20223;-79
2023/12/27 02:39:29;;;;;;;4.63;1.55;;;26.80;99.90;;;;;;5061427;28;20217;-81
2023/12/27 02:42:02;;;;;;;4.32;1.30;;;26.90;99.90;;;;;;5068469;28;20198;-81
2023/12/27 02:44:33;;;;;;;3.78;1.25;;;26.90;99.90;;;;;;5063304;28;20275;-82
2023/12/27 02:47:06;;;;;;;3.67;1.05;;;26.80;99.90;;;;;;5066393;28;20247;-81
2023/12/27 02:49:36;;;;;;;3.42;1.27;;;26.60;99.90;;;;;;5076545;28;20215;-80
2023/12/27 02:52:07;;;;;;;3.78;1.73;;;26.50;99.90;;;;;;5069767;28;20313;-79
2023/12/27 02:54:38;;;;;;;2.10;1.10;;;26.30;99.90;;;;;;5056677;28;20196;-80
2023/12/27 02:57:12;;;;;;;2.33;1.13;;;26.20;99.90;;;;;;5076729;28;20254;-80
2023/12/27 02:59:42;;;;;;;4.07;1.35;;;26.00;99.90;;;;;;5067416;28;20275;-80
2023/12/27 03:02:13;;;;;;;6.30;1.45;;;25.90;99.90;;;;;;5064448;28;20841;-80
2023/12/27 03:04:44;;;;;;;4.18;1.20;;;25.70;99.90;;;;;;5062013;28;20720;-80
2023/12/27 03:07:15;;;;;;;2.90;1.20;;;25.50;99.90;;;;;;5061455;28;20220;-80
2023/12/27 03:09:46;;;;;;;2.58;1.17;;;25.30;99.90;;;;;;5061784;28;20583;-80
2023/12/27 03:12:18;;;;;;;3.40;1.00;;;25.20;99.90;;;;;;5061298;28;20762;-80
2023/12/27 03:14:50;;;;;;;2.85;1.10;;;25.20;99.90;;;;;;5067558;28;20306;-80
2023/12/27 03:17:20;;;;;;;3.03;1.70;;;25.10;99.90;;;;;;5072909;28;20243;-80
2023/12/27 03:19:51;;;;;;;3.35;1.35;;;25.00;99.90;;;;;;5069242;28;20263;-80
2023/12/27 03:22:22;;;;;;;8.65;3.55;;;24.90;99.90;;;;;;5069575;28;20250;-78
2023/12/27 03:24:53;;;;;;;6.82;1.10;;;24.90;99.90;;;;;;5064693;28;20273;-79
2023/12/27 03:27:26;;;;;;;2.85;0.90;;;24.10;99.90;;;;;;5067902;28;20266;-79
2023/12/27 03:29:57;;;;;;;2.50;1.00;;;23.00;99.90;;;;;;5060469;28;20724;-80
2023/12/27 03:32:28;;;;;;;5.00;1.10;;;21.90;99.90;;;;;;5067290;28;20223;-82
2023/12/27 03:34:58;;;;;;;4.13;1.52;;;21.40;99.90;;;;;;5064083;28;20211;-82
2023/12/27 03:37:29;;;;;;;7.93;1.90;;;21.10;99.90;;;;;;5075272;28;20199;-82
2023/12/27 03:40:00;;;;;;;4.28;1.40;;;20.80;99.90;;;;;;5074746;28;20219;-81
2023/12/27 03:42:33;;;;;;;5.20;1.33;;;20.70;99.90;;;;;;5071934;28;20320;-82
2023/12/27 03:45:03;;;;;;;5.43;1.35;;;20.70;99.90;;;;;;5068319;28;20279;-83
2023/12/27 03:47:35;;;;;;;3.83;1.10;;;20.60;99.90;;;;;;5073499;28;20196;-83
2023/12/27 03:50:06;;;;;;;2.85;0.98;;;20.60;99.90;;;;;;5057593;28;20204;-83
2023/12/27 03:52:37;;;;;;;3.58;1.00;;;20.80;99.90;;;;;;5072977;28;20216;-82
2023/12/27 03:55:08;;;;;;;1.77;0.80;;;20.80;99.90;;;;;;5076129;28;20224;-81
2023/12/27 03:57:41;;;;;;;2.25;0.80;;;20.80;99.90;;;;;;5073244;28;20729;-82
2023/12/27 04:00:13;;;;;;;2.45;0.90;;;20.80;99.90;;;;;;5081583;28;20667;-80
2023/12/27 04:02:44;;;;;;;2.60;0.80;;;20.90;99.90;;;;;;5071893;28;20220;-83
2023/12/27 04:05:15;;;;;;;2.80;0.90;;;20.90;99.90;;;;;;5067689;28;20575;-80
2023/12/27 04:07:46;;;;;;;6.10;0.90;;;21.00;99.90;;;;;;5069604;28;20216;-82
2023/12/27 04:10:17;;;;;;;5.03;1.20;;;21.10;99.90;;;;;;5072928;28;20677;-83
2023/12/27 04:12:50;;;;;;;3.95;1.40;;;21.30;99.90;;;;;;5075315;28;20698;-82
2023/12/27 04:15:21;;;;;;;3.40;1.00;;;21.20;99.90;;;;;;5075853;28;20216;-82
2023/12/27 04:17:52;;;;;;;3.80;1.13;;;21.30;99.90;;;;;;5071110;28;20222;-82
2023/12/27 04:20:22;;;;;;;4.43;1.02;;;21.30;99.90;;;;;;5067425;28;20224;-82
2023/12/27 04:22:53;;;;;;;3.28;0.90;;;21.40;99.90;;;;;;5073028;28;20205;-81
2023/12/27 04:25:24;;;;;;;3.60;1.00;;;21.50;99.90;;;;;;5066493;28;20219;-81
2023/12/27 04:27:57;;;;;;;4.03;1.00;;;21.50;99.90;;;;;;5067268;28;20230;-81
2023/12/27 04:30:28;;;;;;;3.53;1.33;;;21.60;99.90;;;;;;5084518;28;20184;-82
2023/12/27 04:32:58;;;;;;;3.60;0.90;;;21.60;99.90;;;;;;5087671;28;20220;-82
2023/12/27 04:35:29;;;;;;;4.38;1.30;;;21.80;99.90;;;;;;5078640;28;20276;-80
2023/12/27 04:38:03;;;;;;;3.97;1.50;;;22.00;99.90;;;;;;5061898;28;20295;-81
2023/12/27 04:40:33;;;;;;;2.25;1.10;;;22.10;99.90;;;;;;5051429;28;20218;-81
2023/12/27 04:43:06;;;;;;;4.13;1.52;;;22.00;99.90;;;;;;5065173;28;20220;-78
2023/12/27 04:45:37;;;;;;;4.45;1.58;;;22.10;99.90;;;;;;5069636;28;20214;-80
2023/12/27 04:48:09;;;;;;;4.05;1.05;;;22.10;99.90;;;;;;5070294;28;20203;-80
2023/12/27 04:50:40;;;;;;;2.22;1.13;;;22.00;99.90;;;;;;5059489;28;20219;-81
2023/12/27 04:53:11;;;;;;;3.03;0.90;;;22.00;99.90;;;;;;5057189;28;20261;-80
2023/12/27 04:55:41;;;;;;;1.95;1.10;;;21.90;99.90;;;;;;5058726;28;20215;-80
2023/12/27 04:58:14;;;;;;;1.63;0.98;;;21.90;99.90;;;;;;5057198;28;20220;-81
2023/12/27 05:00:45;;;;;;;4.15;1.02;;;22.10;99.90;;;;;;5063650;28;20267;-80
2023/12/27 05:03:16;;;;;;;3.33;1.13;;;22.10;99.90;;;;;;5056780;28;20637;-80
2023/12/27 05:05:47;;;;;;;2.70;0.90;;;22.10;99.90;;;;;;5060171;28;20263;-80
2023/12/27 05:08:17;;;;;;;3.42;1.10;;;22.20;99.90;;;;;;5067953;28;20220;-80
2023/12/27 05:10:48;;;;;;;3.53;1.20;;;22.20;99.90;;;;;;5071089;28;20196;-80
2023/12/27 05:13:21;;;;;;;4.90;1.20;;;22.20;99.90;;;;;;5057089;28;20726;-81
2023/12/27 05:15:52;;;;;;;5.70;1.35;;;22.40;99.90;;;;;;5068997;28;20215;-80
2023/12/27 05:18:23;;;;;;;6.38;1.70;;;22.60;99.90;;;;;;5053477;28;20295;-78
2023/12/27 05:20:54;;;;;;;8.45;1.83;;;22.80;99.90;;;;;;5065203;28;20220;-79
2023/12/27 05:23:25;;;;;;;7.57;1.48;;;23.30;99.90;;;;;;5063930;28;20216;-80
2023/12/27 05:25:58;;;;;;;7.95;2.45;;;23.80;99.90;;;;;;5066289;28;20323;-80
2023/12/27 05:28:31;;;;;;;9.45;1.90;;;24.10;99.90;;;;;;5067606;28;20586;-80
2023/12/27 05:31:05;;;;;;;7.65;2.00;;;24.30;99.90;;;;;;5059792;28;20248;-79
2023/12/27 05:33:36;;;;;;;8.52;2.42;;;24.50;99.90;;;;;;5069154;28;20306;-83
2023/12/27 05:36:07;;;;;;;8.18;2.13;;;24.70;99.90;;;;;;5056356;28;20288;-83
2023/12/27 05:38:38;;;;;;;12.30;2.22;;;24.60;99.90;;;;;;5056364;28;20208;-82
2023/12/27 05:41:09;;;;;;;10.30;2.47;;;24.50;99.90;;;;;;5071880;28;20216;-83
2023/12/27 05:43:42;;;;;;;13.20;2.40;;;24.30;99.90;;;;;;5080315;28;20227;-82
2023/12/27 05:46:13;;;;;;;10.43;2.00;;;24.30;99.90;;;;;;5082041;28;20217;-82
2023/12/27 05:48:43;;;;;;;9.23;2.05;;;24.10;99.90;;;;;;5087437;28;20247;-84
2023/12/27 05:51:14;;;;;;;8.77;2.20;;;24.10;99.90;;;;;;5082835;28;20216;-81
2023/12/27 05:53:45;;;;;;;7.95;1.70;;;23.90;99.90;;;;;;5063628;28;20223;-84
2023/12/27 05:56:16;;;;;;;8.65;2.13;;;23.90;99.90;;;;;;5063059;28;20302;-83
2023/12/27 05:58:49;;;;;;;8.13;2.03;;;23.90;99.90;;;;;;5071293;28;20203;-83
2023/12/27 06:01:23;;;;;;;8.45;1.85;;;23.90;99.90;;;;;;5070263;28;20580;-82
2023/12/27 06:03:54;;;;;;;10.85;2.20;;;24.00;99.90;;;;;;5051571;28;20184;-81
2023/12/27 06:06:25;;;;;;;10.80;2.80;;;24.10;99.90;;;;;;5055402;28;20681;-81
2023/12/27 06:08:59;;;;;;;11.27;2.40;;;24.10;99.90;;;;;;5052920;28;20202;-82
2023/12/27 06:11:30;;;;;;;9.15;2.40;;;24.00;99.90;;;;;;5067230;28;20279;-83
2023/12/27 06:14:03;;;;;;;12.55;2.30;;;24.00;99.90;;;;;;5059829;28;20261;-82
2023/12/27 06:16:36;;;;;;;8.55;1.92;;;24.10;99.90;;;;;;5057334;28;20234;-81
2023/12/27 06:19:07;;;;;;;9.02;2.03;;;24.60;99.90;;;;;;5061046;28;20236;-83
2023/12/27 06:21:38;;;;;;;12.93;2.58;;;25.00;99.90;;;;;;5066293;28;20223;-84
2023/12/27 06:24:09;;;;;;;10.52;2.50;;;25.00;99.90;;;;;;5065789;28;20224;-83
2023/12/27 06:26:40;;;;;;;14.25;2.92;;;25.10;99.90;;;;;;5063177;28;20203;-83
2023/12/27 06:29:13;;;;;;;11.52;2.78;;;25.30;99.90;;;;;;5059059;28;20201;-83
2023/12/27 06:31:44;;;;;;;13.93;3.10;;;25.50;99.90;;;;;;5068880;28;21262;-83
2023/12/27 06:34:17;;;;;;;12.23;2.80;;;25.60;99.90;;;;;;5059209;28;20311;-83
2023/12/27 06:36:48;;;;;;;9.98;2.53;;;25.90;99.90;;;;;;5050426;28;20564;-84
2023/12/27 06:39:19;;;;;;;6.18;1.90;;;26.20;99.90;;;;;;5057500;28;20212;-81
2023/12/27 06:41:52;;;;;;;8.13;1.88;;;26.40;99.90;;;;;;5067408;28;20192;-79
2023/12/27 06:44:25;;;;;;;8.00;2.00;;;26.60;99.90;;;;;;5059590;28;20782;-81
2023/12/27 06:46:56;;;;;;;15.23;2.97;;;27.00;99.90;;;;;;5063817;28;20739;-80
2023/12/27 06:49:26;;;;;;;11.93;2.55;;;27.60;99.90;;;;;;5081782;28;20662;-81
2023/12/27 06:51:57;;;;;;;12.73;2.30;;;28.00;99.90;;;;;;5062392;28;20314;-80
2023/12/27 06:54:28;;;;;;;10.43;2.80;;;28.20;99.90;;;;;;5063894;28;20234;-81
2023/12/27 06:56:59;;;;;;;16.73;2.88;;;28.20;99.90;;;;;;5058011;28;20196;-81
2023/12/27 06:59:32;;;;;;;11.60;2.60;;;27.90;99.90;;;;;;5050118;28;20228;-81
2023/12/27 07:02:07;;;;;;;14.25;2.45;;;27.60;99.90;;;;;;5070269;28;20198;-81
2023/12/27 07:04:39;;;;;;;14.52;2.75;;;27.20;99.90;;;;;;5065912;28;20657;-81
2023/12/27 07:07:10;;;;;;;8.80;1.90;;;26.90;99.90;;;;;;5071281;28;20211;-80
2023/12/27 07:09:40;;;;;;;12.45;2.15;;;26.50;99.90;;;;;;5064050;28;20227;-79
2023/12/27 07:12:22;;;;;;;10.20;2.42;;;26.50;99.90;;;;;;5083262;28;20311;-79
2023/12/27 07:14:55;;;;;;;7.93;2.03;;;26.50;99.90;;;;;;5063265;28;20228;-79
2023/12/27 07:17:26;;;;;;;17.42;2.40;;;26.80;99.90;;;;;;5061481;28;20219;-79
2023/12/27 07:19:57;;;;;;;8.40;2.13;;;26.70;99.90;;;;;;5057352;28;20618;-80
2023/12/27 07:22:28;;;;;;;14.95;3.70;;;26.50;99.90;;;;;;5055331;28;20215;-78
2023/12/27 07:24:59;;;;;;;8.23;2.30;;;26.40;99.90;;;;;;5064495;28;20219;-79
2023/12/27 07:27:29;;;;;;;9.15;2.20;;;26.20;99.90;;;;;;5063575;28;20302;-79
2023/12/27 07:30:02;;;;;;;8.70;2.05;;;26.10;99.90;;;;;;5061341;28;20223;-80
2023/12/27 07:32:33;;;;;;;8.57;2.13;;;25.90;99.90;;;;;;5062766;28;20216;-80
2023/12/27 07:35:04;;;;;;;3.72;1.73;;;26.00;99.90;;;;;;5061646;28;20721;-79
2023/12/27 07:37:35;;;;;;;13.80;3.97;;;26.40;99.90;;;;;;5068236;28;20200;-80
2023/12/27 07:40:10;;;;;;;5.97;2.10;;;26.30;99.90;;;;;;5069101;28;20233;-80
2023/12/27 07:42:41;;;;;;;5.88;1.48;;;26.10;99.90;;;;;;5077368;28;20744;-79
2023/12/27 07:45:16;;;;;;;9.32;2.20;;;26.00;99.90;;;;;;5056219;28;20221;-81
2023/12/27 07:47:47;;;;;;;6.78;2.00;;;26.60;99.90;;;;;;5068913;28;20210;-80
2023/12/27 07:50:18;;;;;;;8.45;2.95;;;27.40;99.90;;;;;;5076402;28;20204;-81
2023/12/27 07:52:49;;;;;;;7.68;2.40;;;28.20;99.90;;;;;;5052974;28;20284;-80
2023/12/27 07:55:20;;;;;;;6.20;1.85;;;28.80;99.90;;;;;;5072243;28;20585;-79
2023/12/27 07:57:51;;;;;;;4.53;1.52;;;29.30;99.90;;;;;;5084669;28;20284;-80
2023/12/27 08:00:24;;;;;;;5.05;1.58;;;29.50;99.90;;;;;;5071638;28;20733;-81
2023/12/27 08:02:55;;;;;;;5.00;1.52;;;29.50;99.90;;;;;;5066151;28;20235;-81
2023/12/27 08:05:26;;;;;;;7.65;1.65;;;29.40;99.90;;;;;;5076613;28;20211;-81
2023/12/27 08:07:56;;;;;;;6.82;1.90;;;29.20;99.90;;;;;;5071332;28;20290;-81
2023/12/27 08:10:27;;;;;;;7.43;1.95;;;28.70;99.90;;;;;;5052888;28;20201;-82
2023/12/27 08:12:58;;;;;;;5.20;1.73;;;28.20;99.90;;;;;;5051972;28;20204;-81
2023/12/27 08:15:31;;;;;;;4.60;1.60;;;27.90;99.90;;;;;;5064582;28;20211;-80
2023/12/27 08:18:03;;;;;;;7.65;1.92;;;27.50;99.90;;;;;;5072479;28;20214;-82
2023/12/27 08:20:35;;;;;;;8.27;2.10;;;27.20;99.90;;;;;;5077478;28;20288;-81
2023/12/27 08:23:06;;;;;;;8.10;1.88;;;26.90;99.90;;;;;;5082238;28;20614;-82
2023/12/27 08:25:37;;;;;;;8.68;1.70;;;26.70;99.90;;;;;;5070609;28;20191;-81
2023/12/27 08:28:08;;;;;;;10.15;2.30;;;26.50;99.90;;;;;;5070677;28;20275;-81
2023/12/27 08:30:41;;;;;;;6.28;1.90;;;26.30;99.90;;;;;;5070426;28;20200;-81
2023/12/27 08:33:12;;;;;;;7.25;2.20;;;26.10;99.90;;;;;;5072135;28;20660;-81
2023/12/27 08:35:43;;;;;;;6.68;2.05;;;25.90;99.90;;;;;;5069642;28;20204;-83
2023/12/27 08:38:14;;;;;;;8.88;2.25;;;25.80;99.90;;;;;;5087057;28;20196;-83
2023/12/27 08:40:45;;;;;;;6.47;2.00;;;25.60;99.90;;;;;;5076373;28;20196;-81
2023/12/27 08:43:16;;;;;;;6.20;1.90;;;25.50;99.90;;;;;;5070442;28;20195;-82
2023/12/27 08:45:49;;;;;;;5.18;1.60;;;25.30;99.90;;;;;;5073376;28;20216;-81
2023/12/27 08:48:19;;;;;;;6.22;1.77;;;25.30;99.90;;;;;;5068754;28;21236;-81
2023/12/27 08:50:51;;;;;;;8.50;1.88;;;25.20;99.90;;;;;;5075117;28;20192;-81
2023/12/27 08:53:22;;;;;;;7.90;1.73;;;25.10;99.90;;;;;;5069661;28;20689;-81
2023/12/27 08:55:52;;;;;;;7.97;1.80;;;24.90;99.90;;;;;;5061484;28;20198;-79
2023/12/27 08:58:23;;;;;;;4.82;1.88;;;24.90;99.90;;;;;;5062895;28;20210;-80
2023/12/27 09:00:58;;;;;;;6.15;1.75;;;24.80;99.90;;;;;;5060252;28;20216;-80
2023/12/27 09:03:31;;;;;;;6.78;2.40;;;24.70;99.90;;;;;;5067410;28;20230;-79
2023/12/27 09:06:05;;;;;;;10.02;2.42;;;24.60;99.90;;;;;;5070995;28;20200;-80
2023/12/27 09:08:39;;;;;;;8.70;2.65;;;24.60;99.90;;;;;;5048811;28;20216;-80
2023/12/27 09:11:11;;;;;;;8.88;2.38;;;24.50;99.90;;;;;;5070267;28;20240;-80
2023/12/27 09:13:42;;;;;;;10.68;2.65;;;24.40;99.90;;;;;;5065685;28;20264;-79
2023/12/27 09:16:15;;;;;;;10.63;3.05;;;24.40;99.90;;;;;;5066314;28;20206;-80
2023/12/27 09:18:45;;;;;;;13.63;2.80;;;24.30;99.90;;;;;;5068614;28;20226;-79
2023/12/27 09:21:16;;;;;;;9.85;2.60;;;24.30;99.90;;;;;;5072568;28;20227;-79
2023/12/27 09:23:47;;;;;;;9.10;2.25;;;24.30;99.90;;;;;;5056137;28;20773;-80
2023/12/27 09:26:18;;;;;;;11.25;2.85;;;24.30;99.90;;;;;;5067914;28;20192;-78
2023/12/27 09:28:50;;;;;;;11.57;2.88;;;24.20;99.90;;;;;;5072419;28;20192;-79
2023/12/27 09:31:25;;;;;;;11.68;2.90;;;24.20;99.90;;;;;;5069802;28;20232;-78
2023/12/27 09:33:56;;;;;;;11.27;2.55;;;24.20;99.90;;;;;;5084519;28;20607;-78
2023/12/27 09:36:26;;;;;;;9.60;2.70;;;24.20;99.90;;;;;;5087864;28;20256;-79
2023/12/27 09:38:57;;;;;;;9.52;2.53;;;24.10;99.90;;;;;;5083548;28;20199;-79
2023/12/27 09:41:28;;;;;;;13.68;2.97;;;24.10;99.90;;;;;;5066430;28;20303;-79
2023/12/27 09:44:03;;;;;;;10.50;2.60;;;24.10;99.90;;;;;;5066012;28;20201;-80
2023/12/27 09:46:38;;;;;;;7.53;2.63;;;24.00;99.90;;;;;;5068830;28;20729;-79
2023/12/27 09:49:15;;;;;;;11.60;2.60;;;24.00;99.90;;;;;;5059998;28;20597;-80
2023/12/27 09:54:36;;;;;;;10.43;2.83;;;23.90;99.90;;;;;;5057077;28;20722;-79
2023/12/27 09:57:07;;;;;;;11.10;2.72;;;23.90;99.90;;;;;;5063446;28;20607;-79
2023/12/27 09:59:50;;;;;;;13.02;3.20;;;23.80;99.90;;;;;;5065128;28;20196;-80
2023/12/27 10:02:26;;;;;;;10.55;3.17;;;23.80;99.90;;;;;;5069202;28;20204;-80
2023/12/27 10:05:08;;;;;;;10.45;2.50;;;23.80;99.90;;;;;;5059143;28;20204;-79
2023/12/27 10:07:41;;;;;;;10.20;3.15;;;23.80;99.90;;;;;;5062548;28;20198;-79
2023/12/27 10:10:20;;;;;;;10.80;2.83;;;23.70;99.90;;;;;;5066454;28;20196;-80
2023/12/27 10:12:57;;;;;;;12.52;3.17;;;23.70;99.90;;;;;;5063434;28;20640;-79
2023/12/27 10:15:37;;;;;;;8.55;2.80;;;23.60;99.90;;;;;;5067600;28;20304;-80
2023/12/27 10:18:15;;;;;;;11.38;2.90;;;23.60;99.90;;;;;;5068133;28;20669;-80
2023/12/27 10:20:49;;;;;;;8.38;2.90;;;23.50;99.90;;;;;;5066586;28;20224;-80
2023/12/27 10:23:27;;;;;;;9.88;2.85;;;23.50;99.90;;;;;;5068376;28;20245;-80
2023/12/27 10:25:58;;;;;;;7.88;2.80;;;23.40;99.90;;;;;;5061381;28;20245;-79
2023/12/27 10:28:35;;;;;;;10.95;4.30;;;23.40;99.90;;;;;;5060779;28;20215;-80
2023/12/27 10:31:08;;;;;;;20.02;9.82;;;23.40;99.90;;;;;;5065911;28;20195;-81
2023/12/27 10:33:51;;;;;;;19.50;12.13;;;23.30;99.90;;;;;;5076824;28;20655;-80
2023/12/27 10:36:25;;;;;;;18.88;10.82;;;23.30;99.90;;;;;;5074611;28;20231;-81
2023/12/27 10:39:01;;;;;;;17.42;8.88;;;23.30;99.90;;;;;;5075464;28;20229;-80
2023/12/27 10:41:37;;;;;;;14.40;7.53;;;23.20;99.90;;;;;;5071261;28;20238;-81
2023/12/27 10:44:20;;;;;;;9.88;4.18;;;23.20;99.90;;;;;;5080194;28;20206;-81
2023/12/27 10:46:58;;;;;;;8.15;2.58;;;23.20;99.90;;;;;;5063080;28;20610;-82
2023/12/27 10:49:41;;;;;;;11.40;2.75;;;23.10;99.90;;;;;;5066309;28;20203;-82
2023/12/27 10:52:16;;;;;;;9.52;2.50;;;23.10;99.90;;;;;;5057243;28;20310;-81
2023/12/27 10:54:59;;;;;;;8.10;2.40;;;23.10;99.90;;;;;;5069274;28;20298;-82
2023/12/27 10:57:31;;;;;;;8.13;2.35;;;23.10;99.90;;;;;;5065653;28;20204;-81
2023/12/27 11:00:08;;;;;;;9.23;2.38;;;23.10;99.90;;;;;;5057831;28;20220;-81
2023/12/27 11:02:39;;;;;;;9.77;2.22;;;23.00;99.90;;;;;;5067774;28;20215;-81
2023/12/27 11:05:13;;;;;;;9.48;2.58;;;23.00;99.90;;;;;;5070113;28;20593;-81
2023/12/27 11:07:45;;;;;;;9.48;2.45;;;23.00;99.90;;;;;;5067354;28;20235;-82
2023/12/27 11:10:17;;;;;;;9.10;2.08;;;23.00;99.90;;;;;;5060399;28;20212;-79
2023/12/27 11:12:50;;;;;;;5.28;1.90;;;22.90;99.90;;;;;;5069844;28;20218;-81
2023/12/27 11:15:22;;;;;;;7.50;1.88;;;22.90;99.90;;;;;;5072568;28;20253;-80
2023/12/27 11:17:54;;;;;;;9.55;2.10;;;22.90;99.90;;;;;;5068870;28;20197;-81
2023/12/27 11:20:28;;;;;;;6.35;2.10;;;22.80;99.90;;;;;;5078427;28;20797;-80
2023/12/27 11:22:59;;;;;;;12.05;2.17;;;22.90;99.90;;;;;;5067966;28;20218;-78
2023/12/27 11:25:30;;;;;;;6.00;1.75;;;22.90;99.90;;;;;;5075359;28;20211;-81
2023/12/27 11:28:02;;;;;;;6.68;1.63;;;22.80;99.90;;;;;;5078721;28;20208;-81
2023/12/27 11:30:34;;;;;;;5.65;1.83;;;22.80;99.90;;;;;;5077537;28;20243;-79
2023/12/27 11:33:06;;;;;;;9.88;1.98;;;22.70;99.90;;;;;;5068665;28;20303;-79
2023/12/27 11:35:40;;;;;;;6.05;1.52;;;22.70;99.90;;;;;;5060495;28;20307;-80
2023/12/27 11:38:21;;;;;;;7.28;1.88;;;22.70;99.90;;;;;;5069525;28;20217;-81
2023/12/27 11:40:54;;;;;;;7.65;1.60;;;22.70;99.90;;;;;;5067749;28;20219;-82
2023/12/27 11:43:26;;;;;;;7.45;2.00;;;22.70;99.90;;;;;;5064404;28;20275;-79
2023/12/27 11:46:02;;;;;;;8.52;2.10;;;22.70;99.90;;;;;;5067812;28;20235;-83
2023/12/27 11:48:39;;;;;;;5.82;1.58;;;22.60;99.90;;;;;;5071103;28;20194;-81
2023/12/27 11:51:34;;;;;;;5.30;1.65;;;22.60;99.90;;;;;;5079467;28;20234;-82
2023/12/27 11:54:06;;;;;;;6.18;1.30;;;22.60;99.90;;;;;;5094028;28;20212;-81
2023/12/27 11:56:37;;;;;;;8.70;1.50;;;22.70;99.90;;;;;;5090007;28;20228;-82
2023/12/27 11:59:11;;;;;;;7.13;1.55;;;22.70;99.90;;;;;;5078156;28;20589;-82
2023/12/27 12:01:43;;;;;;;7.50;1.60;;;22.60;99.90;;;;;;5069594;28;20192;-80
2023/12/27 12:04:33;;;;;;;3.58;1.50;;;22.60;99.90;;;;;;5080298;28;20207;-81
2023/12/27 12:07:41;;;;;;;5.05;1.50;;;22.60;99.90;;;;;;5079060;28;20220;-81
2023/12/27 12:10:28;;;;;;;7.40;1.67;;;22.60;99.90;;;;;;5072438;28;20231;-81
2023/12/27 12:12:59;;;;;;;6.40;1.58;;;22.50;99.90;;;;;;5070345;28;20187;-80
2023/12/27 12:15:32;;;;;;;7.57;1.83;;;22.50;99.90;;;;;;5072178;28;20228;-81
2023/12/27 12:18:04;;;;;;;6.00;1.60;;;22.50;99.90;;;;;;5074466;28;20202;-80
2023/12/27 12:20:36;;;;;;;10.93;1.60;;;22.50;99.90;;;;;;5070482;28;20716;-80
2023/12/27 12:23:09;;;;;;;9.55;1.40;;;22.50;99.90;;;;;;5075003;28;20669;-81
2023/12/27 12:25:44;;;;;;;5.72;1.60;;;22.50;99.90;;;;;;5070114;28;20200;-80
2023/12/27 12:28:15;;;;;;;7.55;1.42;;;22.50;99.90;;;;;;5078757;28;20216;-80
2023/12/27 12:30:50;;;;;;;9.80;1.48;;;22.50;99.90;;;;;;5072062;28;20749;-80
2023/12/27 12:33:20;;;;;;;6.07;1.50;;;22.50;99.90;;;;;;5074622;28;20211;-78
2023/12/27 12:35:52;;;;;;;5.47;1.30;;;22.40;99.90;;;;;;5068837;28;20636;-78
2023/12/27 12:38:27;;;;;;;7.15;1.40;;;22.40;99.90;;;;;;5063858;28;20243;-80
2023/12/27 12:40:57;;;;;;;3.75;1.10;;;22.40;99.90;;;;;;5060480;28;20211;-79
2023/12/27 12:43:28;;;;;;;8.98;1.92;;;22.30;99.90;;;;;;5070643;28;20768;-78
2023/12/27 12:46:01;;;;;;;7.30;1.77;;;22.30;99.90;;;;;;5067005;28;20702;-78
2023/12/27 12:48:32;;;;;;;6.60;1.38;;;22.30;99.90;;;;;;5067165;28;20223;-78
2023/12/27 12:51:16;;;;;;;6.28;1.80;;;22.20;99.90;;;;;;5064547;28;20218;-78
2023/12/27 12:53:49;;;;;;;8.65;2.20;;;22.20;99.90;;;;;;5069355;28;20216;-78
2023/12/27 12:56:20;;;;;;;6.35;1.67;;;22.10;99.90;;;;;;5069932;28;20716;-78
2023/12/27 12:58:51;;;;;;;10.15;2.33;;;22.10;99.90;;;;;;5067555;28;20737;-76
2023/12/27 13:01:22;;;;;;;8.27;1.67;;;22.10;99.90;;;;;;5069823;28;20219;-77
2023/12/27 13:03:53;;;;;;;7.38;1.80;;;22.10;99.90;;;;;;5066529;28;20242;-77
2023/12/27 13:06:25;;;;;;;7.63;2.10;;;22.10;99.90;;;;;;5069668;28;20219;-77
2023/12/27 13:08:57;;;;;;;6.07;1.80;;;22.10;99.90;;;;;;5062500;28;20203;-78
2023/12/27 13:11:29;;;;;;;8.70;2.13;;;22.10;99.90;;;;;;5064007;28;20216;-78
2023/12/27 13:14:01;;;;;;;6.80;2.15;;;22.10;99.90;;;;;;5065794;28;20651;-78